createdAt,value
2017-11-11T00:00:03.988Z,7.42
2017-11-11T00:00:08.515Z,7.41
2017-11-11T00:00:12.879Z,7.42
2017-11-11T00:00:17.112Z,7.36
2017-11-11T00:00:20.928Z,7.39
2017-11-11T00:00:25.412Z,7.44
2017-11-11T00:00:29.927Z,7.42
2017-11-11T00:00:34.426Z,7.42
2017-11-11T00:00:38.780Z,7.42
2017-11-11T00:00:43.134Z,7.37
2017-11-11T00:00:47.520Z,7.45
2017-11-11T00:00:51.750Z,7.42
2017-11-11T00:00:56.243Z,7.42
2017-11-11T00:01:00.608Z,7.42
2017-11-11T00:01:04.924Z,7.44
2017-11-11T00:01:09.408Z,7.44
2017-11-11T00:01:13.783Z,7.39
2017-11-11T00:01:18.285Z,7.41
2017-11-11T00:01:22.774Z,7.36
2017-11-11T00:01:27.127Z,7.41
2017-11-11T00:01:31.488Z,7.44
2017-11-11T00:01:35.981Z,7.44
2017-11-11T00:01:40.347Z,7.42
2017-11-11T00:01:44.850Z,7.33
2017-11-11T00:01:49.337Z,7.42
2017-11-11T00:01:53.714Z,7.42
2017-11-11T00:01:57.934Z,7.48
2017-11-11T00:02:02.681Z,7.45
2017-11-11T00:02:06.938Z,7.44
2017-11-11T00:02:11.435Z,7.39
2017-11-11T00:02:15.517Z,7.44
2017-11-11T00:02:19.768Z,7.44
2017-11-11T00:02:23.996Z,7.44
2017-11-11T00:02:28.546Z,7.39
2017-11-11T00:02:32.649Z,7.39
2017-11-11T00:02:36.874Z,7.33
2017-11-11T00:02:41.249Z,7.42
2017-11-11T00:02:45.473Z,7.37
2017-11-11T00:02:49.986Z,7.42
2017-11-11T00:02:54.205Z,7.36
2017-11-11T00:02:58.566Z,7.33
2017-11-11T00:03:03.208Z,7.37
2017-11-11T00:03:07.576Z,7.36
2017-11-11T00:03:11.931Z,7.41
2017-11-11T00:03:16.464Z,7.41
2017-11-11T00:03:20.557Z,7.44
2017-11-11T00:03:24.784Z,7.42
2017-11-11T00:03:29.150Z,7.47
2017-11-11T00:03:33.366Z,7.42
2017-11-11T00:03:37.851Z,7.41
2017-11-11T00:03:42.248Z,7.41
2017-11-11T00:03:46.742Z,7.44
2017-11-11T00:03:51.114Z,7.36
2017-11-11T00:03:55.337Z,7.44
2017-11-11T00:03:59.818Z,7.44
2017-11-11T00:04:04.298Z,7.42
2017-11-11T00:04:08.528Z,7.37
2017-11-11T00:04:12.749Z,7.36
2017-11-11T00:04:17.247Z,7.39
2017-11-11T00:04:21.738Z,7.34
2017-11-11T00:04:26.125Z,7.34
2017-11-11T00:04:30.482Z,7.37
2017-11-11T00:04:34.992Z,7.42
2017-11-11T00:04:39.374Z,7.36
2017-11-11T00:04:43.861Z,7.33
2017-11-11T00:04:48.227Z,7.41
2017-11-11T00:04:52.763Z,7.41
2017-11-11T00:04:56.983Z,7.44
2017-11-11T00:05:01.205Z,7.41
2017-11-11T00:05:05.530Z,7.36
2017-11-11T00:05:10.015Z,7.33
2017-11-11T00:05:14.514Z,7.42
2017-11-11T00:05:18.732Z,7.3
2017-11-11T00:05:23.216Z,7.36
2017-11-11T00:05:27.588Z,7.44
2017-11-11T00:05:31.946Z,7.33
2017-11-11T00:05:36.423Z,7.42
2017-11-11T00:05:40.678Z,7.32
2017-11-11T00:05:44.912Z,7.3
2017-11-11T00:05:49.398Z,7.39
2017-11-11T00:05:53.749Z,7.33
2017-11-11T00:05:58.251Z,7.32
2017-11-11T00:06:02.943Z,7.36
2017-11-11T00:06:07.470Z,7.42
2017-11-11T00:06:11.849Z,7.33
2017-11-11T00:06:15.933Z,7.33
2017-11-11T00:06:20.429Z,7.36
2017-11-11T00:06:24.662Z,7.33
2017-11-11T00:06:29.012Z,7.42
2017-11-11T00:06:33.234Z,7.3
2017-11-11T00:06:37.447Z,7.33
2017-11-11T00:06:41.685Z,7.32
2017-11-11T00:06:46.180Z,7.33
2017-11-11T00:06:50.531Z,7.37
2017-11-11T00:06:54.891Z,7.37
2017-11-11T00:06:59.257Z,7.33
2017-11-11T00:07:03.346Z,7.33
2017-11-11T00:07:07.563Z,7.33
2017-11-11T00:07:12.064Z,7.41
2017-11-11T00:07:16.431Z,7.36
2017-11-11T00:07:20.922Z,7.32
2017-11-11T00:07:25.309Z,7.3
2017-11-11T00:07:29.664Z,7.33
2017-11-11T00:07:34.024Z,7.3
2017-11-11T00:07:38.553Z,7.44
2017-11-11T00:07:42.957Z,7.36
2017-11-11T00:07:47.206Z,7.33
2017-11-11T00:07:51.694Z,7.32
2017-11-11T00:07:56.200Z,7.39
2017-11-11T00:08:00.438Z,7.33
2017-11-11T00:08:05.237Z,7.32
2017-11-11T00:08:09.608Z,7.34
2017-11-11T00:08:13.973Z,7.33
2017-11-11T00:08:18.335Z,7.32
2017-11-11T00:08:22.681Z,7.39
2017-11-11T00:08:26.927Z,7.36
2017-11-11T00:08:31.282Z,7.29
2017-11-11T00:08:35.779Z,7.3
2017-11-11T00:08:40.133Z,7.39
2017-11-11T00:08:44.482Z,7.3
2017-11-11T00:08:48.989Z,7.33
2017-11-11T00:08:53.481Z,7.32
2017-11-11T00:08:57.827Z,7.29
2017-11-11T00:09:02.483Z,7.34
2017-11-11T00:09:06.975Z,7.33
2017-11-11T00:09:11.327Z,7.44
2017-11-11T00:09:15.556Z,7.3
2017-11-11T00:09:20.059Z,7.32
2017-11-11T00:09:24.013Z,7.32
2017-11-11T00:09:28.516Z,7.32
2017-11-11T00:09:33.004Z,7.3
2017-11-11T00:09:37.349Z,7.32
2017-11-11T00:09:41.848Z,7.3
2017-11-11T00:09:46.213Z,7.3
2017-11-11T00:09:50.704Z,7.32
2017-11-11T00:09:55.057Z,7.34
2017-11-11T00:09:59.559Z,7.37
2017-11-11T00:10:03.919Z,7.39
2017-11-11T00:10:08.413Z,7.33
2017-11-11T00:10:12.759Z,7.32
2017-11-11T00:10:16.857Z,7.33
2017-11-11T00:10:21.083Z,7.34
2017-11-11T00:10:25.302Z,7.33
2017-11-11T00:10:29.661Z,7.32
2017-11-11T00:10:34.157Z,7.34
2017-11-11T00:10:38.238Z,7.32
2017-11-11T00:10:42.466Z,7.42
2017-11-11T00:10:46.694Z,7.29
2017-11-11T00:10:51.171Z,7.33
2017-11-11T00:10:55.531Z,7.36
2017-11-11T00:11:00.023Z,7.32
2017-11-11T00:11:04.241Z,7.44
2017-11-11T00:11:08.470Z,7.33
2017-11-11T00:11:12.848Z,7.33
2017-11-11T00:11:16.931Z,7.29
2017-11-11T00:11:21.025Z,7.3
2017-11-11T00:11:25.244Z,7.34
2017-11-11T00:11:29.598Z,7.34
2017-11-11T00:11:34.088Z,7.33
2017-11-11T00:11:38.589Z,7.34
2017-11-11T00:11:43.073Z,7.32
2017-11-11T00:11:47.427Z,7.34
2017-11-11T00:11:51.797Z,7.3
2017-11-11T00:11:56.283Z,7.3
2017-11-11T00:12:00.645Z,7.32
2017-11-11T00:12:05.140Z,7.33
2017-11-11T00:12:09.492Z,7.42
2017-11-11T00:12:13.851Z,7.39
2017-11-11T00:12:18.206Z,7.39
2017-11-11T00:12:22.419Z,7.33
2017-11-11T00:12:26.785Z,7.36
2017-11-11T00:12:31.292Z,7.44
2017-11-11T00:12:35.660Z,7.3
2017-11-11T00:12:40.020Z,7.39
2017-11-11T00:12:44.528Z,7.42
2017-11-11T00:12:49.027Z,7.32
2017-11-11T00:12:53.388Z,7.42
2017-11-11T00:12:57.755Z,7.33
2017-11-11T00:13:02.248Z,7.33
2017-11-11T00:13:06.483Z,7.33
2017-11-11T00:13:10.973Z,7.36
2017-11-11T00:13:15.460Z,7.33
2017-11-11T00:13:19.815Z,7.3
2017-11-11T00:13:23.903Z,7.36
2017-11-11T00:13:28.390Z,7.37
2017-11-11T00:13:32.608Z,7.33
2017-11-11T00:13:36.847Z,7.47
2017-11-11T00:13:41.238Z,7.33
2017-11-11T00:13:45.716Z,7.37
2017-11-11T00:13:50.089Z,7.37
2017-11-11T00:13:54.602Z,7.42
2017-11-11T00:13:58.853Z,7.36
2017-11-11T00:14:03.075Z,7.42
2017-11-11T00:14:07.297Z,7.33
2017-11-11T00:14:11.382Z,7.42
2017-11-11T00:14:15.899Z,7.41
2017-11-11T00:14:20.252Z,7.39
2017-11-11T00:14:24.742Z,7.36
2017-11-11T00:14:29.233Z,7.45
2017-11-11T00:14:33.727Z,7.39
2017-11-11T00:14:38.220Z,7.36
2017-11-11T00:14:42.452Z,7.45
2017-11-11T00:14:46.806Z,7.39
2017-11-11T00:14:51.284Z,7.39
2017-11-11T00:14:55.787Z,7.42
2017-11-11T00:15:00.017Z,7.41
2017-11-11T00:15:04.513Z,7.36
2017-11-11T00:15:08.877Z,7.42
2017-11-11T00:15:13.225Z,7.37
2017-11-11T00:15:17.717Z,7.41
2017-11-11T00:15:21.951Z,7.37
2017-11-11T00:15:26.175Z,7.41
2017-11-11T00:15:30.680Z,7.42
2017-11-11T00:15:35.088Z,7.44
2017-11-11T00:15:39.574Z,7.44
2017-11-11T00:15:43.665Z,7.33
2017-11-11T00:15:48.215Z,7.34
2017-11-11T00:15:52.579Z,7.42
2017-11-11T00:15:57.060Z,7.42
2017-11-11T00:16:01.165Z,7.37
2017-11-11T00:16:05.522Z,7.32
2017-11-11T00:16:09.742Z,7.37
2017-11-11T00:16:13.822Z,7.33
2017-11-11T00:16:18.034Z,7.33
2017-11-11T00:16:22.250Z,7.42
2017-11-11T00:16:26.616Z,7.37
2017-11-11T00:16:30.962Z,7.33
2017-11-11T00:16:35.191Z,7.42
2017-11-11T00:16:39.410Z,7.44
2017-11-11T00:16:43.893Z,7.42
2017-11-11T00:16:48.127Z,7.34
2017-11-11T00:16:52.619Z,7.41
2017-11-11T00:16:57.110Z,7.39
2017-11-11T00:17:01.601Z,7.42
2017-11-11T00:17:06.225Z,7.41
2017-11-11T00:17:10.573Z,7.44
2017-11-11T00:17:15.059Z,7.48
2017-11-11T00:17:19.567Z,7.39
2017-11-11T00:17:23.651Z,7.36
2017-11-11T00:17:28.011Z,7.41
2017-11-11T00:17:32.501Z,7.34
2017-11-11T00:17:37.004Z,7.41
2017-11-11T00:17:41.363Z,7.42
2017-11-11T00:17:45.851Z,7.39
2017-11-11T00:17:50.092Z,7.39
2017-11-11T00:17:54.313Z,7.47
2017-11-11T00:17:58.803Z,7.41
2017-11-11T00:18:03.282Z,7.42
2017-11-11T00:18:07.655Z,7.42
2017-11-11T00:18:11.880Z,7.42
2017-11-11T00:18:16.361Z,7.42
2017-11-11T00:18:20.726Z,7.41
2017-11-11T00:18:24.991Z,7.39
2017-11-11T00:18:29.207Z,7.41
2017-11-11T00:18:33.614Z,7.44
2017-11-11T00:18:37.976Z,7.37
2017-11-11T00:18:42.343Z,7.42
2017-11-11T00:18:46.835Z,7.36
2017-11-11T00:18:51.332Z,7.39
2017-11-11T00:18:55.551Z,7.41
2017-11-11T00:19:00.028Z,7.47
2017-11-11T00:19:04.691Z,7.39
2017-11-11T00:19:09.173Z,7.44
2017-11-11T00:19:13.531Z,7.45
2017-11-11T00:19:18.033Z,7.42
2017-11-11T00:19:22.251Z,7.39
2017-11-11T00:19:26.474Z,7.42
2017-11-11T00:19:30.969Z,7.41
2017-11-11T00:19:35.319Z,7.37
2017-11-11T00:19:39.684Z,7.37
2017-11-11T00:19:44.070Z,7.33
2017-11-11T00:19:48.561Z,7.42
2017-11-11T00:19:53.050Z,7.42
2017-11-11T00:19:57.560Z,7.37
2017-11-11T00:20:02.195Z,7.45
2017-11-11T00:20:06.294Z,7.45
2017-11-11T00:20:10.805Z,7.39
2017-11-11T00:20:15.292Z,7.37
2017-11-11T00:20:19.790Z,7.33
2017-11-11T00:20:24.144Z,7.32
2017-11-11T00:20:28.231Z,7.42
2017-11-11T00:20:32.738Z,7.37
2017-11-11T00:20:37.134Z,7.37
2017-11-11T00:20:41.614Z,7.39
2017-11-11T00:20:46.106Z,7.39
2017-11-11T00:20:50.485Z,7.32
2017-11-11T00:20:54.834Z,7.44
2017-11-11T00:20:59.181Z,7.39
2017-11-11T00:21:03.908Z,7.42
2017-11-11T00:21:08.408Z,7.42
2017-11-11T00:21:12.773Z,7.39
2017-11-11T00:21:17.261Z,7.37
2017-11-11T00:21:21.622Z,7.37
2017-11-11T00:21:25.864Z,7.47
2017-11-11T00:21:30.396Z,7.45
2017-11-11T00:21:34.881Z,7.37
2017-11-11T00:21:39.106Z,7.45
2017-11-11T00:21:43.591Z,7.37
2017-11-11T00:21:47.945Z,7.39
2017-11-11T00:21:52.167Z,7.41
2017-11-11T00:21:56.672Z,7.42
2017-11-11T00:22:01.172Z,7.36
2017-11-11T00:22:05.889Z,7.42
2017-11-11T00:22:10.278Z,7.44
2017-11-11T00:22:14.759Z,7.39
2017-11-11T00:22:19.275Z,7.44
2017-11-11T00:22:23.779Z,7.42
2017-11-11T00:22:28.267Z,7.44
2017-11-11T00:22:32.632Z,7.36
2017-11-11T00:22:36.983Z,7.36
2017-11-11T00:22:41.207Z,7.42
2017-11-11T00:22:45.565Z,7.45
2017-11-11T00:22:49.917Z,7.42
2017-11-11T00:22:54.270Z,7.45
2017-11-11T00:22:58.494Z,7.45
2017-11-11T00:23:02.848Z,7.45
2017-11-11T00:23:07.194Z,7.44
2017-11-11T00:23:11.686Z,7.42
2017-11-11T00:23:16.181Z,7.42
2017-11-11T00:23:20.682Z,7.42
2017-11-11T00:23:24.908Z,7.45
2017-11-11T00:23:29.302Z,7.42
2017-11-11T00:23:33.793Z,7.41
2017-11-11T00:23:38.295Z,7.45
2017-11-11T00:23:42.798Z,7.41
2017-11-11T00:23:47.144Z,7.44
2017-11-11T00:23:51.516Z,7.44
2017-11-11T00:23:56.038Z,7.37
2017-11-11T00:24:00.534Z,7.41
2017-11-11T00:24:04.945Z,7.42
2017-11-11T00:24:09.304Z,7.37
2017-11-11T00:24:13.790Z,7.45
2017-11-11T00:24:18.152Z,7.32
2017-11-11T00:24:22.502Z,7.42
2017-11-11T00:24:26.730Z,7.42
2017-11-11T00:24:30.959Z,7.36
2017-11-11T00:24:35.314Z,7.34
2017-11-11T00:24:39.799Z,7.44
2017-11-11T00:24:44.303Z,7.37
2017-11-11T00:24:48.792Z,7.44
2017-11-11T00:24:53.010Z,7.37
2017-11-11T00:24:57.380Z,7.41
2017-11-11T00:25:01.738Z,7.45
2017-11-11T00:25:06.143Z,7.42
2017-11-11T00:25:10.522Z,7.44
2017-11-11T00:25:14.883Z,7.36
2017-11-11T00:25:19.249Z,7.37
2017-11-11T00:25:23.774Z,7.36
2017-11-11T00:25:28.257Z,7.36
2017-11-11T00:25:32.609Z,7.47
2017-11-11T00:25:36.830Z,7.36
2017-11-11T00:25:41.186Z,7.39
2017-11-11T00:25:45.538Z,7.45
2017-11-11T00:25:50.053Z,7.37
2017-11-11T00:25:54.545Z,7.5
2017-11-11T00:25:59.027Z,7.37
2017-11-11T00:26:03.731Z,7.42
2017-11-11T00:26:08.113Z,7.39
2017-11-11T00:26:12.481Z,7.42
2017-11-11T00:26:16.842Z,7.37
2017-11-11T00:26:21.060Z,7.42
2017-11-11T00:26:25.546Z,7.37
2017-11-11T00:26:30.038Z,7.42
2017-11-11T00:26:34.257Z,7.5
2017-11-11T00:26:38.805Z,7.39
2017-11-11T00:26:43.287Z,7.42
2017-11-11T00:26:47.642Z,7.45
2017-11-11T00:26:52.003Z,7.42
2017-11-11T00:26:56.491Z,7.5
2017-11-11T00:27:00.855Z,7.36
2017-11-11T00:27:05.228Z,7.37
2017-11-11T00:27:09.586Z,7.41
2017-11-11T00:27:14.090Z,7.39
2017-11-11T00:27:18.449Z,7.47
2017-11-11T00:27:22.945Z,7.44
2017-11-11T00:27:27.445Z,7.41
2017-11-11T00:27:31.664Z,7.42
2017-11-11T00:27:35.764Z,7.41
2017-11-11T00:27:40.120Z,7.41
2017-11-11T00:27:44.623Z,7.37
2017-11-11T00:27:48.847Z,7.44
2017-11-11T00:27:53.340Z,7.41
2017-11-11T00:27:57.688Z,7.41
2017-11-11T00:28:02.178Z,7.5
2017-11-11T00:28:06.267Z,7.36
2017-11-11T00:28:10.758Z,7.42
2017-11-11T00:28:15.251Z,7.41
2017-11-11T00:28:19.742Z,7.45
2017-11-11T00:28:23.826Z,7.45
2017-11-11T00:28:28.203Z,7.44
2017-11-11T00:28:32.427Z,7.48
2017-11-11T00:28:36.917Z,7.36
2017-11-11T00:28:41.428Z,7.48
2017-11-11T00:28:45.914Z,7.42
2017-11-11T00:28:50.000Z,7.48
2017-11-11T00:28:54.231Z,7.42
2017-11-11T00:28:58.720Z,7.44
2017-11-11T00:29:03.359Z,7.42
2017-11-11T00:29:07.845Z,7.48
2017-11-11T00:29:12.337Z,7.37
2017-11-11T00:29:16.820Z,7.47
2017-11-11T00:29:21.310Z,7.51
2017-11-11T00:29:25.663Z,7.45
2017-11-11T00:29:30.184Z,7.45
2017-11-11T00:29:34.418Z,7.45
2017-11-11T00:29:38.907Z,7.37
2017-11-11T00:29:43.395Z,7.44
2017-11-11T00:29:47.883Z,7.41
2017-11-11T00:29:52.416Z,7.51
2017-11-11T00:29:56.903Z,7.51
2017-11-11T00:30:01.395Z,7.51
2017-11-11T00:30:06.077Z,7.44
2017-11-11T00:30:10.442Z,7.45
2017-11-11T00:30:14.954Z,7.44
2017-11-11T00:30:19.311Z,7.44
2017-11-11T00:30:23.663Z,7.52
2017-11-11T00:30:27.888Z,7.45
2017-11-11T00:30:32.384Z,7.5
2017-11-11T00:30:36.481Z,7.47
2017-11-11T00:30:40.843Z,7.44
2017-11-11T00:30:45.336Z,7.51
2017-11-11T00:30:49.707Z,7.48
2017-11-11T00:30:54.195Z,7.47
2017-11-11T00:30:58.714Z,7.5
2017-11-11T00:31:02.927Z,7.41
2017-11-11T00:31:07.292Z,7.45
2017-11-11T00:31:11.692Z,7.41
2017-11-11T00:31:16.172Z,7.47
2017-11-11T00:31:20.398Z,7.54
2017-11-11T00:31:24.758Z,7.44
2017-11-11T00:31:29.272Z,7.51
2017-11-11T00:31:33.494Z,7.5
2017-11-11T00:31:37.720Z,7.42
2017-11-11T00:31:42.202Z,7.39
2017-11-11T00:31:46.689Z,7.47
2017-11-11T00:31:51.198Z,7.47
2017-11-11T00:31:55.680Z,7.39
2017-11-11T00:32:00.172Z,7.47
2017-11-11T00:32:04.779Z,7.52
2017-11-11T00:32:09.137Z,7.41
2017-11-11T00:32:13.488Z,7.45
2017-11-11T00:32:17.841Z,7.5
2017-11-11T00:32:22.059Z,7.45
2017-11-11T00:32:26.154Z,7.54
2017-11-11T00:32:30.641Z,7.47
2017-11-11T00:32:34.998Z,7.5
2017-11-11T00:32:39.353Z,7.44
2017-11-11T00:32:43.731Z,7.47
2017-11-11T00:32:48.236Z,7.45
2017-11-11T00:32:52.624Z,7.51
2017-11-11T00:32:56.980Z,7.41
2017-11-11T00:33:01.339Z,7.5
2017-11-11T00:33:05.961Z,7.47
2017-11-11T00:33:10.458Z,7.5
2017-11-11T00:33:14.957Z,7.44
2017-11-11T00:33:19.317Z,7.47
2017-11-11T00:33:23.812Z,7.41
2017-11-11T00:33:28.181Z,7.45
2017-11-11T00:33:32.551Z,7.51
2017-11-11T00:33:36.644Z,7.52
2017-11-11T00:33:40.855Z,7.47
2017-11-11T00:33:45.373Z,7.45
2017-11-11T00:33:49.600Z,7.52
2017-11-11T00:33:53.964Z,7.54
2017-11-11T00:33:58.326Z,7.5
2017-11-11T00:34:02.819Z,7.55
2017-11-11T00:34:07.178Z,7.5
2017-11-11T00:34:11.543Z,7.44
2017-11-11T00:34:15.764Z,7.48
2017-11-11T00:34:20.253Z,7.5
2017-11-11T00:34:24.487Z,7.45
2017-11-11T00:34:28.985Z,7.47
2017-11-11T00:34:33.336Z,7.45
2017-11-11T00:34:37.703Z,7.42
2017-11-11T00:34:42.191Z,7.48
2017-11-11T00:34:46.681Z,7.42
2017-11-11T00:34:51.175Z,7.5
2017-11-11T00:34:55.667Z,7.51
2017-11-11T00:34:59.885Z,7.45
2017-11-11T00:35:04.781Z,7.45
2017-11-11T00:35:09.268Z,7.54
2017-11-11T00:35:13.634Z,7.5
2017-11-11T00:35:17.990Z,7.45
2017-11-11T00:35:22.476Z,7.48
2017-11-11T00:35:26.851Z,7.45
2017-11-11T00:35:31.344Z,7.48
2017-11-11T00:35:35.712Z,7.52
2017-11-11T00:35:40.223Z,7.57
2017-11-11T00:35:44.716Z,7.47
2017-11-11T00:35:49.205Z,7.55
2017-11-11T00:35:53.760Z,7.5
2017-11-11T00:35:58.240Z,7.47
2017-11-11T00:36:02.928Z,7.41
2017-11-11T00:36:07.163Z,7.58
2017-11-11T00:36:11.641Z,7.55
2017-11-11T00:36:16.008Z,7.44
2017-11-11T00:36:20.376Z,7.44
2017-11-11T00:36:24.598Z,7.47
2017-11-11T00:36:28.966Z,7.48
2017-11-11T00:36:33.332Z,7.54
2017-11-11T00:36:37.813Z,7.52
2017-11-11T00:36:42.176Z,7.52
2017-11-11T00:36:46.664Z,7.54
2017-11-11T00:36:51.167Z,7.55
2017-11-11T00:36:55.388Z,7.55
2017-11-11T00:36:59.610Z,7.48
2017-11-11T00:37:04.189Z,7.51
2017-11-11T00:37:08.683Z,7.52
2017-11-11T00:37:13.178Z,7.58
2017-11-11T00:37:17.665Z,7.52
2017-11-11T00:37:22.022Z,7.58
2017-11-11T00:37:26.119Z,7.44
2017-11-11T00:37:30.622Z,7.52
2017-11-11T00:37:34.838Z,7.54
2017-11-11T00:37:39.209Z,7.45
2017-11-11T00:37:43.568Z,7.45
2017-11-11T00:37:48.053Z,7.52
2017-11-11T00:37:52.543Z,7.54
2017-11-11T00:37:57.041Z,7.58
2017-11-11T00:38:01.413Z,7.44
2017-11-11T00:38:06.167Z,7.52
2017-11-11T00:38:10.380Z,7.54
2017-11-11T00:38:14.611Z,7.47
2017-11-11T00:38:18.969Z,7.47
2017-11-11T00:38:23.326Z,7.47
2017-11-11T00:38:27.541Z,7.48
2017-11-11T00:38:32.039Z,7.54
2017-11-11T00:38:36.402Z,7.48
2017-11-11T00:38:40.897Z,7.58
2017-11-11T00:38:44.998Z,7.54
2017-11-11T00:38:49.360Z,7.52
2017-11-11T00:38:53.710Z,7.48
2017-11-11T00:38:58.197Z,7.54
2017-11-11T00:39:02.874Z,7.54
2017-11-11T00:39:07.385Z,7.5
2017-11-11T00:39:11.750Z,7.48
2017-11-11T00:39:16.102Z,7.48
2017-11-11T00:39:20.461Z,7.45
2017-11-11T00:39:24.826Z,7.52
2017-11-11T00:39:29.188Z,7.52
2017-11-11T00:39:33.665Z,7.5
2017-11-11T00:39:37.891Z,7.51
2017-11-11T00:39:42.250Z,7.5
2017-11-11T00:39:46.343Z,7.47
2017-11-11T00:39:50.560Z,7.5
2017-11-11T00:39:54.803Z,7.5
2017-11-11T00:39:59.295Z,7.45
2017-11-11T00:40:03.871Z,7.52
2017-11-11T00:40:08.227Z,7.55
2017-11-11T00:40:12.579Z,7.48
2017-11-11T00:40:16.929Z,7.57
2017-11-11T00:40:21.428Z,7.54
2017-11-11T00:40:25.954Z,7.54
2017-11-11T00:40:30.444Z,7.51
2017-11-11T00:40:34.683Z,7.54
2017-11-11T00:40:39.038Z,7.48
2017-11-11T00:40:43.257Z,7.52
2017-11-11T00:40:47.361Z,7.55
2017-11-11T00:40:51.848Z,7.54
2017-11-11T00:40:56.191Z,7.55
2017-11-11T00:41:00.565Z,7.48
2017-11-11T00:41:05.066Z,7.5
2017-11-11T00:41:09.427Z,7.5
2017-11-11T00:41:13.786Z,7.54
2017-11-11T00:41:18.277Z,7.5
2017-11-11T00:41:22.629Z,7.54
2017-11-11T00:41:26.867Z,7.57
2017-11-11T00:41:31.219Z,7.51
2017-11-11T00:41:35.702Z,7.51
2017-11-11T00:41:40.220Z,7.55
2017-11-11T00:41:44.716Z,7.45
2017-11-11T00:41:49.086Z,7.48
2017-11-11T00:41:53.585Z,7.55
2017-11-11T00:41:57.945Z,7.51
2017-11-11T00:42:02.529Z,7.55
2017-11-11T00:42:06.884Z,7.54
2017-11-11T00:42:11.117Z,7.51
2017-11-11T00:42:15.333Z,7.52
2017-11-11T00:42:19.711Z,7.57
2017-11-11T00:42:23.824Z,7.55
2017-11-11T00:42:28.180Z,7.55
2017-11-11T00:42:32.542Z,7.62
2017-11-11T00:42:37.053Z,7.54
2017-11-11T00:42:41.405Z,7.6
2017-11-11T00:42:45.772Z,7.45
2017-11-11T00:42:50.132Z,7.55
2017-11-11T00:42:54.486Z,7.51
2017-11-11T00:42:58.852Z,7.55
2017-11-11T00:43:03.344Z,7.55
2017-11-11T00:43:07.572Z,7.5
2017-11-11T00:43:12.063Z,7.55
2017-11-11T00:43:16.300Z,7.55
2017-11-11T00:43:20.793Z,7.58
2017-11-11T00:43:25.362Z,7.52
2017-11-11T00:43:29.722Z,7.58
2017-11-11T00:43:34.211Z,7.48
2017-11-11T00:43:38.714Z,7.57
2017-11-11T00:43:43.086Z,7.58
2017-11-11T00:43:47.456Z,7.52
2017-11-11T00:43:51.946Z,7.55
2017-11-11T00:43:56.504Z,7.5
2017-11-11T00:44:00.991Z,7.58
2017-11-11T00:44:05.357Z,7.55
2017-11-11T00:44:09.879Z,7.51
2017-11-11T00:44:14.108Z,7.54
2017-11-11T00:44:18.339Z,7.57
2017-11-11T00:44:22.698Z,7.55
2017-11-11T00:44:27.198Z,7.55
2017-11-11T00:44:31.697Z,7.57
2017-11-11T00:44:35.941Z,7.55
2017-11-11T00:44:40.031Z,7.57
2017-11-11T00:44:44.539Z,7.52
2017-11-11T00:44:49.039Z,7.63
2017-11-11T00:44:53.525Z,7.5
2017-11-11T00:44:58.012Z,7.52
2017-11-11T00:45:02.516Z,7.55
2017-11-11T00:45:06.875Z,7.62
2017-11-11T00:45:11.363Z,7.62
2017-11-11T00:45:15.881Z,7.66
2017-11-11T00:45:20.233Z,7.62
2017-11-11T00:45:24.456Z,7.55
2017-11-11T00:45:28.725Z,7.58
2017-11-11T00:45:33.210Z,7.6
2017-11-11T00:45:37.555Z,7.63
2017-11-11T00:45:42.050Z,7.62
2017-11-11T00:45:46.576Z,7.55
2017-11-11T00:45:51.059Z,7.62
2017-11-11T00:45:55.549Z,7.54
2017-11-11T00:45:59.916Z,7.54
2017-11-11T00:46:04.277Z,7.58
2017-11-11T00:46:08.515Z,7.6
2017-11-11T00:46:12.883Z,7.57
2017-11-11T00:46:17.363Z,7.58
2017-11-11T00:46:21.855Z,7.55
2017-11-11T00:46:26.203Z,7.57
2017-11-11T00:46:30.570Z,7.52
2017-11-11T00:46:35.064Z,7.51
2017-11-11T00:46:39.429Z,7.57
2017-11-11T00:46:43.796Z,7.54
2017-11-11T00:46:48.317Z,7.55
2017-11-11T00:46:52.659Z,7.54
2017-11-11T00:46:57.019Z,7.62
2017-11-11T00:47:01.380Z,7.57
2017-11-11T00:47:05.565Z,7.57
2017-11-11T00:47:09.689Z,7.58
2017-11-11T00:47:14.045Z,7.57
2017-11-11T00:47:18.531Z,7.57
2017-11-11T00:47:22.756Z,7.58
2017-11-11T00:47:26.999Z,7.57
2017-11-11T00:47:31.085Z,7.63
2017-11-11T00:47:35.452Z,7.57
2017-11-11T00:47:39.970Z,7.57
2017-11-11T00:47:44.326Z,7.55
2017-11-11T00:47:48.710Z,7.54
2017-11-11T00:47:53.071Z,7.5
2017-11-11T00:47:57.422Z,7.51
2017-11-11T00:48:01.926Z,7.54
2017-11-11T00:48:06.296Z,7.57
2017-11-11T00:48:10.512Z,7.55
2017-11-11T00:48:14.871Z,7.58
2017-11-11T00:48:19.238Z,7.54
2017-11-11T00:48:23.599Z,7.55
2017-11-11T00:48:27.692Z,7.62
2017-11-11T00:48:32.253Z,7.57
2017-11-11T00:48:36.618Z,7.6
2017-11-11T00:48:40.991Z,7.6
2017-11-11T00:48:45.350Z,7.51
2017-11-11T00:48:49.878Z,7.5
2017-11-11T00:48:54.226Z,7.55
2017-11-11T00:48:58.718Z,7.55
2017-11-11T00:49:03.217Z,7.6
2017-11-11T00:49:07.727Z,7.6
2017-11-11T00:49:12.220Z,7.57
2017-11-11T00:49:16.577Z,7.6
2017-11-11T00:49:21.065Z,7.55
2017-11-11T00:49:25.287Z,7.52
2017-11-11T00:49:29.660Z,7.57
2017-11-11T00:49:34.152Z,7.57
2017-11-11T00:49:38.673Z,7.55
2017-11-11T00:49:43.033Z,7.57
2017-11-11T00:49:47.395Z,7.58
2017-11-11T00:49:51.893Z,7.63
2017-11-11T00:49:55.990Z,7.58
2017-11-11T00:50:00.211Z,7.55
2017-11-11T00:50:04.726Z,7.58
2017-11-11T00:50:09.130Z,7.63
2017-11-11T00:50:13.485Z,7.55
2017-11-11T00:50:17.988Z,7.58
2017-11-11T00:50:22.354Z,7.58
2017-11-11T00:50:26.444Z,7.51
2017-11-11T00:50:30.947Z,7.6
2017-11-11T00:50:35.432Z,7.54
2017-11-11T00:50:39.923Z,7.55
2017-11-11T00:50:44.283Z,7.55
2017-11-11T00:50:48.782Z,7.54
2017-11-11T00:50:53.264Z,7.5
2017-11-11T00:50:57.619Z,7.63
2017-11-11T00:51:02.257Z,7.57
2017-11-11T00:51:06.612Z,7.57
2017-11-11T00:51:11.115Z,7.55
2017-11-11T00:51:15.649Z,7.6
2017-11-11T00:51:20.012Z,7.57
2017-11-11T00:51:24.247Z,7.51
2017-11-11T00:51:28.621Z,7.6
2017-11-11T00:51:33.105Z,7.54
2017-11-11T00:51:37.349Z,7.6
2017-11-11T00:51:41.719Z,7.62
2017-11-11T00:51:46.226Z,7.54
2017-11-11T00:51:50.599Z,7.55
2017-11-11T00:51:55.088Z,7.58
2017-11-11T00:51:59.448Z,7.58
2017-11-11T00:52:03.989Z,7.55
2017-11-11T00:52:08.501Z,7.58
2017-11-11T00:52:12.862Z,7.54
2017-11-11T00:52:17.236Z,7.55
2017-11-11T00:52:21.759Z,7.58
2017-11-11T00:52:26.106Z,7.55
2017-11-11T00:52:30.469Z,7.58
2017-11-11T00:52:34.819Z,7.52
2017-11-11T00:52:39.306Z,7.55
2017-11-11T00:52:43.661Z,7.55
2017-11-11T00:52:48.025Z,7.58
2017-11-11T00:52:52.240Z,7.55
2017-11-11T00:52:56.589Z,7.55
2017-11-11T00:53:00.952Z,7.54
2017-11-11T00:53:20.235Z,7.52
2017-11-11T00:53:24.335Z,7.55
2017-11-11T00:53:28.689Z,7.63
2017-11-11T00:53:33.174Z,7.58
2017-11-11T00:53:37.396Z,7.57
2017-11-11T00:53:41.950Z,7.6
2017-11-11T00:53:46.305Z,7.55
2017-11-11T00:53:50.813Z,7.55
2017-11-11T00:53:55.310Z,7.55
2017-11-11T00:53:59.530Z,7.57
2017-11-11T00:54:04.135Z,7.55
2017-11-11T00:54:08.500Z,7.52
2017-11-11T00:54:12.862Z,7.6
2017-11-11T00:54:17.219Z,7.55
2017-11-11T00:54:21.612Z,7.58
2017-11-11T00:54:25.972Z,7.6
2017-11-11T00:54:30.335Z,7.55
2017-11-11T00:54:34.684Z,7.58
2017-11-11T00:54:39.035Z,7.58
2017-11-11T00:54:43.258Z,7.62
2017-11-11T00:54:47.781Z,7.57
2017-11-11T00:54:52.277Z,7.63
2017-11-11T00:54:56.500Z,7.63
2017-11-11T00:55:00.865Z,7.57
2017-11-11T00:55:05.339Z,7.62
2017-11-11T00:55:09.618Z,7.62
2017-11-11T00:55:14.107Z,7.58
2017-11-11T00:55:18.335Z,7.6
2017-11-11T00:55:22.438Z,7.63
2017-11-11T00:55:26.932Z,7.55
2017-11-11T00:55:31.439Z,7.63
2017-11-11T00:55:35.794Z,7.57
2017-11-11T00:55:40.013Z,7.62
2017-11-11T00:55:44.514Z,7.67
2017-11-11T00:55:48.889Z,7.63
2017-11-11T00:55:53.241Z,7.62
2017-11-11T00:55:57.489Z,7.54
2017-11-11T00:56:02.262Z,7.63
2017-11-11T00:56:06.477Z,7.63
2017-11-11T00:56:10.977Z,7.62
2017-11-11T00:56:15.373Z,7.58
2017-11-11T00:56:19.591Z,7.63
2017-11-11T00:56:23.679Z,7.69
2017-11-11T00:56:27.895Z,7.58
2017-11-11T00:56:32.259Z,7.57
2017-11-11T00:56:36.610Z,7.63
2017-11-11T00:56:41.134Z,7.63
2017-11-11T00:56:45.488Z,7.62
2017-11-11T00:56:49.859Z,7.62
2017-11-11T00:56:54.394Z,7.62
2017-11-11T00:56:58.745Z,7.55
2017-11-11T00:57:02.961Z,7.69
2017-11-11T00:57:07.470Z,7.62
2017-11-11T00:57:11.837Z,7.66
2017-11-11T00:57:16.325Z,7.55
2017-11-11T00:57:20.835Z,7.57
2017-11-11T00:57:25.185Z,7.57
2017-11-11T00:57:29.677Z,7.57
2017-11-11T00:57:34.035Z,7.6
2017-11-11T00:57:38.531Z,7.67
2017-11-11T00:57:43.042Z,7.62
2017-11-11T00:57:47.404Z,7.6
2017-11-11T00:57:51.764Z,7.58
2017-11-11T00:57:56.252Z,7.58
2017-11-11T00:58:00.797Z,7.74
2017-11-11T00:58:05.263Z,7.6
2017-11-11T00:58:09.757Z,7.58
2017-11-11T00:58:13.992Z,7.58
2017-11-11T00:58:18.477Z,7.63
2017-11-11T00:58:22.967Z,7.66
2017-11-11T00:58:27.073Z,7.69
2017-11-11T00:58:31.562Z,7.62
2017-11-11T00:58:36.061Z,7.62
2017-11-11T00:58:40.418Z,7.63
2017-11-11T00:58:44.904Z,7.67
2017-11-11T00:58:49.263Z,7.63